Northbridge, MA

1:02 PM EDT on October 25, 2014 (GMT -0400)
East Milton | Change Station
CLOSE
Current Station
Airport
Location: East Milton,
Elevation: 630 ft
Nearby Weather Stations

Elev 630 ft 42.21 °N, 71.11 °W | Updated 8 minutes ago

Clear
Clear
62 °F
Feels Like 62 °F
N
10
Wind Variable Wind from West
Gusts 18 mph

Today
High -- | Low -- °F
--% Chance of Precip.
Yesterday
High -- | Low -- °F
Precip. -- in
7:10 AM 5:49 PM
Waxing Crescent, 3% visible
Pressure 29.70 in
Visibility -9999.0 miles
Clouds
Dew Point 41 °F
Humidity 46%
Rainfall 0.00 in
Snow Depth Not available.
UV Not available.
Pollen 1.60 out of 12
Ozone Good
PM2.5 Good
Flu Activity Sporadic
METAR KMQE 251654Z AUTO 27009KT 17/05 A2966 RMK AO1 SLP056 T01670050

More Conditions Fewer Conditions

Pressure 29.70 in
Visibility -9999.0 miles
Clouds
Dew Point 41 °F
Humidity 46%
Rainfall 0.00 in
Snow Depth Not available.
UV Not available.
Pollen 1.60 out of 12
Ozone Good
PM2.5 Good
Flu Activity Sporadic
METAR KMQE 251654Z AUTO 27009KT 17/05 A2966 RMK AO1 SLP056 T01670050

More Conditions Fewer Conditions

10-Day Weather Forecast

Almanac

Astronomy

Oct. 25, 2014 Rise Set
Actual Time 7:10 AM EDT 5:49 PM EDT
Civil Twilight 6:42 AM EDT 6:18 PM EDT
Nautical Twilight 6:09 AM EDT 6:51 PM EDT
Astronomical Twilight 5:37 AM EDT 7:23 PM EDT
Moon 8:48 AM EDT 7:08 PM EDT
Length of Visible Light 11h 36m
Length of Day
10h 38m
Tomorrow will be 2m 37s shorter.
Waxing Crescent, 3% of the Moon is Illuminated
Today
Waxing Crescent
Oct 30
First Quarter
Nov 6
Full
Nov 14
Last Quarter
Nov 22
New

Today's Extremes

State Highs State Lows

Community

WunderPhotos

Upload Photos

1,764,909 photos uploaded!

Nearby

Air Quality

  Air Quality AQ Index Pollutant
Yesterday Good
OZONE
Yesterday Good
PM2.5
Current Good
PM2.5
Current Good
OZONE
Saturday Good
PM2.5
Saturday Good
OZONE

Snow Depth

Station Depth Elevation
No new snow has been reported.

Earthquake Activity

City Distance Mag. Time & Date
No recent earthquake activity has been reported nearby.
Minimum magnitude displayed is 2.5.

Coastal Water Temperatures

Place Temperature
Newport, RI 60.1 °F
Quonset Point, RI 59.0 °F
Conimicut Light, RI 59.0 °F

Nearby Weather Stations